createdAt,value
2023-03-29T00:02:21.117Z,1.90
2023-03-29T00:05:09.726Z,1.85
2023-03-29T00:07:58.831Z,1.90
2023-03-29T00:10:49.325Z,1.57
2023-03-29T00:13:38.092Z,1.70
2023-03-29T00:16:25.459Z,2.00
2023-03-29T00:19:13.066Z,2.00
2023-03-29T00:22:00.596Z,2.00
2023-03-29T00:24:49.277Z,1.92
2023-03-29T00:27:36.353Z,1.90
2023-03-29T00:30:23.892Z,2.20
2023-03-29T00:33:11.586Z,1.77
2023-03-29T00:35:59.133Z,1.90
2023-03-29T00:38:46.607Z,1.92
2023-03-29T00:41:33.767Z,1.90
2023-03-29T00:44:57.833Z,1.87
2023-03-29T00:47:51.273Z,1.72
2023-03-29T00:50:48.403Z,1.90
2023-03-29T00:56:39.578Z,1.80
2023-03-29T00:59:29.709Z,2.02
2023-03-29T01:02:19.736Z,1.82
2023-03-29T01:05:13.076Z,1.72
2023-03-29T01:08:06.651Z,1.77
2023-03-29T01:11:00.207Z,2.52
2023-03-29T01:14:03.712Z,1.90
2023-03-29T01:16:51.851Z,1.90
2023-03-29T01:19:44.432Z,2.17
2023-03-29T01:22:53.076Z,2.10
2023-03-29T01:25:52.445Z,1.80
2023-03-29T01:28:59.498Z,1.70
2023-03-29T01:32:01.480Z,1.77
2023-03-29T01:34:51.694Z,1.70
2023-03-29T01:38:09.275Z,2.17
2023-03-29T01:40:56.430Z,1.92
2023-03-29T01:43:49.801Z,2.00
2023-03-29T01:46:40.349Z,1.72
2023-03-29T01:49:40.014Z,1.87
2023-03-29T01:52:30.483Z,1.62
2023-03-29T01:55:20.854Z,1.80
2023-03-29T01:58:11.510Z,1.45
2023-03-29T02:01:00.833Z,1.80
2023-03-29T02:03:53.358Z,1.60
2023-03-29T02:06:42.823Z,1.65
2023-03-29T02:09:31.103Z,2.05
2023-03-29T02:12:19.668Z,1.75
2023-03-29T02:15:08.799Z,1.80
2023-03-29T02:17:56.886Z,2.08
2023-03-29T02:20:50.679Z,1.67
2023-03-29T02:23:47.473Z,1.72
2023-03-29T02:29:21.915Z,1.80
2023-03-29T02:32:18.219Z,1.65
2023-03-29T02:35:13.353Z,1.98
2023-03-29T02:38:03.809Z,2.17
2023-03-29T02:40:52.943Z,1.42
2023-03-29T02:43:41.517Z,2.27
2023-03-29T02:46:29.507Z,1.70
2023-03-29T02:49:17.189Z,1.72
2023-03-29T02:52:07.796Z,1.60
2023-03-29T02:54:56.448Z,2.10
2023-03-29T02:57:44.242Z,1.90
2023-03-29T03:00:32.318Z,2.42
2023-03-29T03:03:20.702Z,1.75
2023-03-29T03:06:08.307Z,2.00
2023-03-29T03:08:56.681Z,2.12
2023-03-29T03:11:44.841Z,1.80
2023-03-29T03:14:32.609Z,1.85
2023-03-29T03:17:19.769Z,1.92
2023-03-29T03:20:15.479Z,2.00
2023-03-29T03:23:03.256Z,2.00
2023-03-29T03:25:50.696Z,2.02
2023-03-29T03:28:38.831Z,2.15
2023-03-29T03:31:27.972Z,1.95
2023-03-29T03:34:15.546Z,1.92
2023-03-29T03:37:03.187Z,2.10
2023-03-29T03:39:50.303Z,1.80
2023-03-29T03:42:38.059Z,2.22
2023-03-29T03:45:26.054Z,2.05
2023-03-29T03:48:13.673Z,2.10
2023-03-29T03:51:01.310Z,2.08
2023-03-29T03:53:48.447Z,2.00
2023-03-29T03:56:35.800Z,2.40
2023-03-29T03:59:23.446Z,2.20
2023-03-29T04:02:11.260Z,2.10
2023-03-29T04:05:00.297Z,2.08
2023-03-29T04:07:47.918Z,1.67
2023-03-29T04:10:36.765Z,2.15
2023-03-29T04:13:24.366Z,2.05
2023-03-29T04:16:11.612Z,1.70
2023-03-29T04:18:59.147Z,2.00
2023-03-29T04:21:48.664Z,2.22
2023-03-29T04:24:35.952Z,1.90
2023-03-29T04:27:23.127Z,1.80
2023-03-29T04:30:10.963Z,1.98
2023-03-29T04:32:58.730Z,1.90
2023-03-29T04:35:45.903Z,2.08
2023-03-29T04:38:35.308Z,1.90
2023-03-29T04:41:24.787Z,1.87
2023-03-29T04:44:12.199Z,1.90
2023-03-29T04:46:59.290Z,1.87
2023-03-29T04:49:46.980Z,2.02
2023-03-29T04:52:35.511Z,1.90
2023-03-29T04:55:22.895Z,1.87
2023-03-29T04:58:10.244Z,1.95
2023-03-29T05:01:01.444Z,2.30
2023-03-29T05:03:49.327Z,2.20
2023-03-29T05:06:38.703Z,1.95
2023-03-29T05:09:26.717Z,2.12
2023-03-29T05:12:14.241Z,2.00
2023-03-29T05:15:01.767Z,2.27
2023-03-29T05:17:49.424Z,2.37
2023-03-29T05:20:37.937Z,2.30
2023-03-29T05:23:25.680Z,2.10
2023-03-29T05:26:14.460Z,2.00
2023-03-29T05:29:02.584Z,2.08
2023-03-29T05:31:50.263Z,2.10
2023-03-29T05:34:37.511Z,2.30
2023-03-29T05:37:26.491Z,2.15
2023-03-29T05:40:14.057Z,1.95
2023-03-29T05:43:02.570Z,2.20
2023-03-29T05:45:49.881Z,2.67
2023-03-29T05:48:39.480Z,2.58
2023-03-29T05:51:26.210Z,2.10
2023-03-29T05:54:14.981Z,2.47
2023-03-29T05:57:02.564Z,2.20
2023-03-29T05:59:49.565Z,2.17
2023-03-29T06:02:37.190Z,2.83
2023-03-29T06:05:24.241Z,2.52
2023-03-29T06:08:11.471Z,2.65
2023-03-29T06:11:02.458Z,2.60
2023-03-29T06:13:49.326Z,3.02
2023-03-29T06:16:37.558Z,2.92
2023-03-29T06:19:25.461Z,2.58
2023-03-29T06:22:14.825Z,2.65
2023-03-29T06:25:02.542Z,3.02
2023-03-29T06:27:50.489Z,2.80
2023-03-29T06:30:38.299Z,2.67
2023-03-29T06:33:25.799Z,3.08
2023-03-29T06:36:15.136Z,3.05
2023-03-29T06:39:03.908Z,3.02
2023-03-29T06:41:51.262Z,3.20
2023-03-29T06:44:38.608Z,3.70
2023-03-29T06:47:27.434Z,3.22
2023-03-29T06:50:14.669Z,3.45
2023-03-29T06:53:02.345Z,3.20
2023-03-29T06:55:51.947Z,3.70
2023-03-29T06:58:42.155Z,3.47
2023-03-29T07:01:29.535Z,3.35
2023-03-29T07:04:17.566Z,3.70
2023-03-29T07:07:06.182Z,3.58
2023-03-29T07:09:56.427Z,3.35
2023-03-29T07:12:45.296Z,3.65
2023-03-29T07:15:33.147Z,3.77
2023-03-29T07:18:20.955Z,4.05
2023-03-29T07:21:08.714Z,3.52
2023-03-29T07:23:58.096Z,3.60
2023-03-29T07:27:00.152Z,4.03
2023-03-29T07:29:34.696Z,3.80
2023-03-29T07:32:22.525Z,4.40
2023-03-29T07:35:12.093Z,5.95
2023-03-29T07:38:02.616Z,3.80
2023-03-29T07:40:49.658Z,3.92
2023-03-29T07:43:38.636Z,4.12
2023-03-29T07:46:26.232Z,3.45
2023-03-29T07:49:13.868Z,3.65
2023-03-29T07:52:03.742Z,4.10
2023-03-29T07:54:52.998Z,3.50
2023-03-29T07:57:40.775Z,3.72
2023-03-29T08:00:28.547Z,3.50
2023-03-29T08:03:16.387Z,3.95
2023-03-29T08:06:04.465Z,4.10
2023-03-29T08:08:52.278Z,4.17
2023-03-29T08:11:39.944Z,3.85
2023-03-29T08:14:30.273Z,4.15
2023-03-29T08:17:17.867Z,4.33
2023-03-29T08:20:07.070Z,3.52
2023-03-29T08:22:55.324Z,4.00
2023-03-29T08:25:42.895Z,3.62
2023-03-29T08:28:30.175Z,3.60
2023-03-29T08:31:17.928Z,3.90
2023-03-29T08:34:05.433Z,3.22
2023-03-29T08:36:53.980Z,3.65
2023-03-29T08:39:41.774Z,4.10
2023-03-29T08:42:39.706Z,4.10
2023-03-29T08:45:51.442Z,3.87
2023-03-29T08:48:44.886Z,4.08
2023-03-29T08:51:40.768Z,3.90
2023-03-29T08:54:31.157Z,3.70
2023-03-29T08:57:46.201Z,3.55
2023-03-29T09:00:39.862Z,3.72
2023-03-29T09:03:30.403Z,3.85
2023-03-29T09:06:21.858Z,3.77
2023-03-29T09:09:22.023Z,4.17
2023-03-29T09:12:18.875Z,3.67
2023-03-29T09:15:12.543Z,3.80
2023-03-29T09:18:09.871Z,3.72
2023-03-29T09:21:03.373Z,4.08
2023-03-29T09:23:56.916Z,4.00
2023-03-29T09:26:53.405Z,4.08
2023-03-29T09:29:46.465Z,3.33
2023-03-29T09:32:39.158Z,3.90
2023-03-29T09:35:28.839Z,3.85
2023-03-29T09:38:17.942Z,3.58
2023-03-29T09:41:28.183Z,4.20
2023-03-29T09:44:30.193Z,4.30
2023-03-29T09:47:19.510Z,4.28
2023-03-29T09:50:23.131Z,3.75
2023-03-29T09:52:59.133Z,3.90
2023-03-29T09:55:50.373Z,4.45
2023-03-29T09:58:38.408Z,3.90
2023-03-29T10:01:25.920Z,4.62
2023-03-29T10:04:14.331Z,4.22
2023-03-29T10:07:01.703Z,4.45
2023-03-29T10:09:52.026Z,3.90
2023-03-29T10:12:40.614Z,3.72
2023-03-29T10:15:32.306Z,3.42
2023-03-29T10:18:19.953Z,4.20
2023-03-29T10:21:07.568Z,4.10
2023-03-29T10:24:02.146Z,4.15
2023-03-29T10:26:52.948Z,4.72
2023-03-29T10:29:43.381Z,3.60
2023-03-29T10:32:36.608Z,3.52
2023-03-29T10:35:27.315Z,4.22
2023-03-29T10:38:17.291Z,3.37
2023-03-29T10:41:12.391Z,4.08
2023-03-29T10:44:01.364Z,3.77
2023-03-29T10:46:48.948Z,3.45
2023-03-29T10:49:47.074Z,4.10
2023-03-29T10:52:35.114Z,3.52
2023-03-29T10:55:25.289Z,3.77
2023-03-29T10:58:28.448Z,3.85
2023-03-29T11:01:40.025Z,3.37
2023-03-29T11:04:55.994Z,3.67
2023-03-29T11:07:58.356Z,3.42
2023-03-29T11:10:54.927Z,3.52
2023-03-29T11:14:03.756Z,3.37
2023-03-29T11:17:02.891Z,3.65
2023-03-29T11:19:56.537Z,3.27
2023-03-29T11:22:50.340Z,4.28
2023-03-29T11:25:43.740Z,3.90
2023-03-29T11:28:36.935Z,3.52
2023-03-29T11:31:33.229Z,3.40
2023-03-29T11:34:38.579Z,3.30
2023-03-29T11:37:41.053Z,3.12
2023-03-29T11:40:43.474Z,3.10
2023-03-29T11:43:36.815Z,3.55
2023-03-29T11:46:38.762Z,3.70
2023-03-29T11:49:32.609Z,3.55
2023-03-29T11:52:32.540Z,3.17
2023-03-29T11:55:23.713Z,3.60
2023-03-29T11:58:23.558Z,3.65
2023-03-29T12:01:17.202Z,3.80
2023-03-29T12:04:10.803Z,3.75
2023-03-29T12:07:13.341Z,4.30
2023-03-29T12:10:10.253Z,3.77
2023-03-29T12:13:03.468Z,3.50
2023-03-29T12:15:56.799Z,3.22
2023-03-29T12:18:53.129Z,3.80
2023-03-29T12:21:42.444Z,3.87
2023-03-29T12:24:32.886Z,4.17
2023-03-29T12:27:29.226Z,3.37
2023-03-29T12:30:38.259Z,3.72
2023-03-29T12:33:37.306Z,3.98
2023-03-29T12:36:45.971Z,4.42
2023-03-29T12:39:33.747Z,4.65
2023-03-29T12:42:23.416Z,3.92
2023-03-29T12:45:32.349Z,3.87
2023-03-29T12:48:28.937Z,3.90
2023-03-29T12:51:23.316Z,3.60
2023-03-29T12:54:16.341Z,3.67
2023-03-29T12:57:22.868Z,4.03
2023-03-29T13:00:25.963Z,3.83
2023-03-29T13:03:31.578Z,3.75
2023-03-29T13:06:51.188Z,3.60
2023-03-29T13:09:57.329Z,4.17
2023-03-29T13:12:46.375Z,3.80
2023-03-29T13:15:36.213Z,4.05
2023-03-29T13:18:35.559Z,3.35
2023-03-29T13:21:31.755Z,3.60
2023-03-29T13:24:41.441Z,3.35
2023-03-29T13:27:39.671Z,2.80
2023-03-29T13:30:30.026Z,2.98
2023-03-29T13:33:20.974Z,3.25
2023-03-29T13:36:22.916Z,3.17
2023-03-29T13:39:16.836Z,2.83
2023-03-29T13:42:13.285Z,3.35
2023-03-29T13:45:15.886Z,3.25
2023-03-29T13:48:23.520Z,3.00
2023-03-29T13:51:23.527Z,3.60
2023-03-29T13:54:22.748Z,3.58
2023-03-29T13:57:16.509Z,3.33
2023-03-29T14:00:11.713Z,3.30
2023-03-29T14:03:04.466Z,3.35
2023-03-29T14:05:54.858Z,3.00
2023-03-29T14:08:44.130Z,3.77
2023-03-29T14:11:32.786Z,3.58
2023-03-29T14:14:24.734Z,3.98
2023-03-29T14:17:21.349Z,3.47
2023-03-29T14:20:11.948Z,4.37
2023-03-29T14:22:59.494Z,4.08
2023-03-29T14:25:46.767Z,3.80
2023-03-29T14:28:34.884Z,3.85
2023-03-29T14:31:25.296Z,4.15
2023-03-29T14:34:19.838Z,3.95
2023-03-29T14:37:09.002Z,3.83
2023-03-29T14:39:57.510Z,3.90
2023-03-29T14:42:44.874Z,3.45
2023-03-29T14:45:32.475Z,3.62
2023-03-29T14:48:20.550Z,3.65
2023-03-29T14:51:09.992Z,3.60
2023-03-29T14:54:02.920Z,3.55
2023-03-29T14:56:50.869Z,3.47
2023-03-29T14:59:40.787Z,3.45
2023-03-29T15:02:34.940Z,3.35
2023-03-29T15:05:37.881Z,3.47
2023-03-29T15:08:34.796Z,3.45
2023-03-29T15:11:26.442Z,3.85
2023-03-29T15:14:19.614Z,3.52
2023-03-29T15:17:19.273Z,3.72
2023-03-29T15:20:11.691Z,3.17
2023-03-29T15:23:11.230Z,2.87
2023-03-29T15:26:01.623Z,3.30
2023-03-29T15:28:53.086Z,2.55
2023-03-29T15:31:42.744Z,2.77
2023-03-29T15:34:32.245Z,2.95
2023-03-29T15:37:19.772Z,2.30
2023-03-29T15:40:09.246Z,2.42
2023-03-29T15:42:56.543Z,2.10
2023-03-29T15:45:45.377Z,2.27
2023-03-29T15:48:33.771Z,2.10
2023-03-29T15:51:21.327Z,2.67
2023-03-29T15:54:09.117Z,2.95
2023-03-29T15:57:03.394Z,2.85
2023-03-29T15:59:53.198Z,2.67
2023-03-29T16:02:41.713Z,2.87
2023-03-29T16:05:29.046Z,2.37
2023-03-29T16:08:16.655Z,2.70
2023-03-29T16:11:04.990Z,3.15
2023-03-29T16:13:52.682Z,3.08
2023-03-29T16:16:40.344Z,2.70
2023-03-29T16:19:28.757Z,2.60
2023-03-29T16:22:16.204Z,3.02
2023-03-29T16:25:05.369Z,3.12
2023-03-29T16:27:53.138Z,2.58
2023-03-29T16:30:42.078Z,2.72
2023-03-29T16:33:29.272Z,2.98
2023-03-29T16:36:16.779Z,3.05
2023-03-29T16:39:05.381Z,2.72
2023-03-29T16:41:52.955Z,2.47
2023-03-29T16:44:40.662Z,2.72
2023-03-29T16:47:28.293Z,2.70
2023-03-29T16:50:18.839Z,2.77
2023-03-29T16:53:06.599Z,2.58
2023-03-29T16:55:54.036Z,2.75
2023-03-29T16:58:42.441Z,2.60
2023-03-29T17:01:30.091Z,2.37
2023-03-29T17:04:17.674Z,2.50
2023-03-29T17:07:04.649Z,2.67
2023-03-29T17:09:52.405Z,2.60
2023-03-29T17:12:40.479Z,2.80
2023-03-29T17:15:28.414Z,2.83
2023-03-29T17:18:15.960Z,2.85
2023-03-29T17:21:03.502Z,2.70
2023-03-29T17:23:51.225Z,3.17
2023-03-29T17:26:38.519Z,3.00
2023-03-29T17:29:25.917Z,3.00
2023-03-29T17:32:13.264Z,3.33
2023-03-29T17:35:00.923Z,3.00
2023-03-29T17:37:48.482Z,2.70
2023-03-29T17:40:35.870Z,3.17
2023-03-29T17:43:23.655Z,2.52
2023-03-29T17:46:22.321Z,2.70
2023-03-29T17:49:06.108Z,2.25
2023-03-29T17:51:53.345Z,2.33
2023-03-29T17:54:41.040Z,2.52
2023-03-29T17:57:28.835Z,2.95
2023-03-29T18:00:17.524Z,2.30
2023-03-29T18:03:04.898Z,2.77
2023-03-29T18:05:52.172Z,2.08
2023-03-29T18:08:39.596Z,2.37
2023-03-29T18:11:27.268Z,2.50
2023-03-29T18:14:14.768Z,2.62
2023-03-29T18:17:02.403Z,2.83
2023-03-29T18:19:49.645Z,2.92
2023-03-29T18:22:36.760Z,2.62
2023-03-29T18:25:24.398Z,3.17
2023-03-29T18:28:11.821Z,2.45
2023-03-29T18:30:59.247Z,2.33
2023-03-29T18:33:46.970Z,2.77
2023-03-29T18:36:37.709Z,2.50
2023-03-29T18:39:25.880Z,2.67
2023-03-29T18:42:13.404Z,2.50
2023-03-29T18:45:01.019Z,2.85
2023-03-29T18:47:50.075Z,2.77
2023-03-29T18:50:38.786Z,2.90
2023-03-29T18:53:26.436Z,2.58
2023-03-29T18:56:13.897Z,2.52
2023-03-29T18:59:02.752Z,2.70
2023-03-29T19:01:49.889Z,3.08
2023-03-29T19:04:37.632Z,3.40
2023-03-29T19:07:24.741Z,2.67
2023-03-29T19:10:12.314Z,2.70
2023-03-29T19:12:59.575Z,2.67
2023-03-29T19:15:47.591Z,2.30
2023-03-29T19:18:35.015Z,2.47
2023-03-29T19:21:22.251Z,2.58
2023-03-29T19:24:09.984Z,2.75
2023-03-29T19:26:57.592Z,2.80
2023-03-29T19:29:44.838Z,2.50
2023-03-29T19:32:33.745Z,2.87
2023-03-29T19:35:21.182Z,2.95
2023-03-29T19:38:11.725Z,3.22
2023-03-29T19:40:59.045Z,3.20
2023-03-29T19:43:46.261Z,3.02
2023-03-29T19:46:34.192Z,3.20
2023-03-29T19:49:21.708Z,3.30
2023-03-29T19:52:08.939Z,3.10
2023-03-29T19:54:56.703Z,3.00
2023-03-29T19:57:43.963Z,2.70
2023-03-29T20:00:31.743Z,2.62
2023-03-29T20:03:21.781Z,2.75
2023-03-29T20:06:10.232Z,2.75
2023-03-29T20:08:58.673Z,2.42
2023-03-29T20:11:47.837Z,2.90
2023-03-29T20:14:36.805Z,2.40
2023-03-29T20:17:24.194Z,2.50
2023-03-29T20:20:13.868Z,2.30
2023-03-29T20:23:05.371Z,2.30
2023-03-29T20:25:53.322Z,2.47
2023-03-29T20:28:40.994Z,2.60
2023-03-29T20:31:29.490Z,2.02
2023-03-29T20:34:18.206Z,2.40
2023-03-29T20:37:06.240Z,2.27
2023-03-29T20:39:55.542Z,2.30
2023-03-29T20:42:45.101Z,2.20
2023-03-29T20:45:39.996Z,2.05
2023-03-29T20:48:23.097Z,1.80
2023-03-29T20:51:11.103Z,2.05
2023-03-29T20:54:05.210Z,2.30
2023-03-29T20:56:54.649Z,2.17
2023-03-29T20:59:43.774Z,2.40
2023-03-29T21:02:31.214Z,2.50
2023-03-29T21:05:19.528Z,2.72
2023-03-29T21:11:16.158Z,2.20
2023-03-29T21:14:04.064Z,2.45
2023-03-29T21:16:51.294Z,2.30
2023-03-29T21:19:39.783Z,2.27
2023-03-29T21:22:27.870Z,2.40
2023-03-29T21:25:15.795Z,2.27
2023-03-29T21:28:03.222Z,2.40
2023-03-29T21:30:53.163Z,2.50
2023-03-29T21:33:40.792Z,2.50
2023-03-29T21:36:28.319Z,2.80
2023-03-29T21:39:15.820Z,2.12
2023-03-29T21:42:03.290Z,2.12
2023-03-29T21:44:50.627Z,2.22
2023-03-29T21:47:38.300Z,3.00
2023-03-29T21:50:25.955Z,2.05
2023-03-29T21:53:13.204Z,2.60
2023-03-29T21:56:00.564Z,2.55
2023-03-29T21:58:48.205Z,2.85
2023-03-29T22:01:35.582Z,2.65
2023-03-29T22:04:35.878Z,2.60
2023-03-29T22:07:12.303Z,2.60
2023-03-29T22:10:01.422Z,2.95
2023-03-29T22:12:48.807Z,2.70
2023-03-29T22:15:35.989Z,3.05
2023-03-29T22:18:23.594Z,3.15
2023-03-29T22:21:17.310Z,2.70
2023-03-29T22:24:06.197Z,3.33
2023-03-29T22:26:53.802Z,3.00
2023-03-29T22:29:41.087Z,3.05
2023-03-29T22:32:30.487Z,2.77
2023-03-29T22:35:17.990Z,2.60
2023-03-29T22:38:05.403Z,2.60
2023-03-29T22:40:52.671Z,2.62
2023-03-29T22:43:39.936Z,2.55
2023-03-29T22:46:27.456Z,2.80
2023-03-29T22:49:14.444Z,2.37
2023-03-29T22:52:02.251Z,2.62
2023-03-29T22:54:49.892Z,2.12
2023-03-29T22:57:37.302Z,2.50
2023-03-29T23:00:24.754Z,2.37
2023-03-29T23:03:11.958Z,2.20
2023-03-29T23:06:03.736Z,2.40
2023-03-29T23:08:51.111Z,2.77
2023-03-29T23:11:38.411Z,2.33
2023-03-29T23:14:27.209Z,2.50
2023-03-29T23:17:16.236Z,2.37
2023-03-29T23:20:07.008Z,2.10
2023-03-29T23:22:54.312Z,2.58
2023-03-29T23:25:43.392Z,2.67
2023-03-29T23:28:31.302Z,2.30
2023-03-29T23:31:19.596Z,2.40
2023-03-29T23:34:07.272Z,2.30
2023-03-29T23:36:54.865Z,2.22
2023-03-29T23:39:42.347Z,2.25
2023-03-29T23:42:30.670Z,1.90
2023-03-29T23:45:19.569Z,2.45
2023-03-29T23:48:08.657Z,2.12
2023-03-29T23:50:59.210Z,2.55
2023-03-29T23:53:47.378Z,1.90
2023-03-29T23:56:34.783Z,2.37
2023-03-29T23:59:24.105Z,2.20
